createdAt,value
2018-12-29T00:00:48.711Z,25.90
2018-12-29T00:03:17.729Z,22.60
2018-12-29T00:05:46.738Z,25.20
2018-12-29T00:08:15.954Z,25.40
2018-12-29T00:10:45.117Z,27.30
2018-12-29T00:13:14.182Z,25.10
2018-12-29T00:15:43.707Z,25.60
2018-12-29T00:18:12.958Z,25.33
2018-12-29T00:20:42.016Z,26.23
2018-12-29T00:23:11.138Z,26.60
2018-12-29T00:25:40.212Z,24.73
2018-12-29T00:28:09.292Z,25.10
2018-12-29T00:30:38.546Z,25.50
2018-12-29T00:33:08.334Z,24.70
2018-12-29T00:35:37.340Z,27.07
2018-12-29T00:38:06.378Z,26.13
2018-12-29T00:40:35.768Z,25.83
2018-12-29T00:43:05.087Z,27.80
2018-12-29T00:45:34.126Z,26.40
2018-12-29T00:48:03.245Z,27.87
2018-12-29T00:50:32.317Z,27.60
2018-12-29T00:53:01.322Z,26.63
2018-12-29T00:55:30.375Z,28.63
2018-12-29T00:57:59.369Z,27.67
2018-12-29T01:00:28.348Z,27.30
2018-12-29T01:02:57.444Z,27.40
2018-12-29T01:05:26.443Z,30.23
2018-12-29T01:07:55.461Z,28.83
2018-12-29T01:10:24.500Z,29.53
2018-12-29T01:12:53.462Z,31.20
2018-12-29T01:15:22.485Z,30.53
2018-12-29T01:17:51.591Z,32.07
2018-12-29T01:20:20.649Z,29.57
2018-12-29T01:22:49.837Z,31.47
2018-12-29T01:25:18.821Z,30.90
2018-12-29T01:27:47.773Z,31.67
2018-12-29T01:30:17.315Z,30.90
2018-12-29T01:32:46.415Z,34.00
2018-12-29T01:35:15.423Z,30.70
2018-12-29T01:37:44.677Z,30.67
2018-12-29T01:40:13.557Z,32.87
2018-12-29T01:42:42.504Z,31.60
2018-12-29T01:45:17.300Z,33.27
2018-12-29T01:47:42.363Z,33.50
2018-12-29T01:50:11.325Z,32.37
2018-12-29T01:52:40.318Z,34.67
2018-12-29T01:55:09.294Z,33.47
2018-12-29T01:57:38.192Z,34.77
2018-12-29T02:00:07.342Z,33.63
2018-12-29T02:02:36.203Z,34.27
2018-12-29T02:05:05.652Z,34.60
2018-12-29T02:07:34.720Z,36.63
2018-12-29T02:10:03.792Z,35.17
2018-12-29T02:12:32.791Z,34.97
2018-12-29T02:15:01.694Z,34.00
2018-12-29T02:17:30.562Z,33.27
2018-12-29T02:19:59.476Z,33.77
2018-12-29T02:22:28.782Z,34.27
2018-12-29T02:24:57.748Z,33.63
2018-12-29T02:27:27.531Z,33.10
2018-12-29T02:29:56.533Z,33.30
2018-12-29T02:32:25.558Z,35.20
2018-12-29T02:34:54.677Z,35.50
2018-12-29T02:37:23.726Z,32.77
2018-12-29T02:39:52.869Z,36.10
2018-12-29T02:42:22.023Z,35.07
2018-12-29T02:44:51.206Z,33.57
2018-12-29T02:47:20.316Z,34.13
2018-12-29T02:49:49.458Z,34.63
2018-12-29T02:52:18.433Z,33.63
2018-12-29T02:54:47.540Z,35.30
2018-12-29T02:57:16.534Z,35.30
2018-12-29T02:59:45.487Z,34.03
2018-12-29T03:02:14.471Z,35.23
2018-12-29T03:04:43.412Z,34.73
2018-12-29T03:07:14.807Z,34.23
2018-12-29T03:09:43.749Z,33.17
2018-12-29T03:12:12.692Z,32.87
2018-12-29T03:14:41.666Z,33.47
2018-12-29T03:17:10.787Z,33.90
2018-12-29T03:19:39.604Z,31.57
2018-12-29T03:22:08.471Z,34.67
2018-12-29T03:24:37.274Z,35.77
2018-12-29T03:27:06.108Z,33.67
2018-12-29T03:29:35.020Z,32.50
2018-12-29T03:32:03.966Z,33.50
2018-12-29T03:34:32.853Z,32.03
2018-12-29T03:37:01.732Z,33.57
2018-12-29T03:39:30.572Z,30.20
2018-12-29T03:41:59.399Z,30.10
2018-12-29T03:44:28.212Z,32.10
2018-12-29T03:46:57.001Z,32.13
2018-12-29T03:49:25.853Z,33.93
2018-12-29T03:51:54.746Z,33.07
2018-12-29T03:54:23.609Z,30.70
2018-12-29T03:56:52.429Z,34.27
2018-12-29T03:59:21.277Z,30.40
2018-12-29T04:01:50.069Z,34.17
2018-12-29T04:04:18.978Z,32.43
2018-12-29T04:06:47.889Z,34.40
2018-12-29T04:09:34.902Z,31.80
2018-12-29T04:12:09.606Z,33.57
2018-12-29T04:14:38.517Z,31.23
2018-12-29T04:17:07.324Z,33.07
2018-12-29T04:19:36.102Z,34.83
2018-12-29T04:22:04.995Z,33.20
2018-12-29T04:24:33.811Z,32.57
2018-12-29T04:27:02.605Z,33.20
2018-12-29T04:29:31.517Z,33.80
2018-12-29T04:32:00.357Z,32.73
2018-12-29T04:34:29.153Z,33.07
2018-12-29T04:36:57.934Z,34.20
2018-12-29T04:39:26.816Z,34.10
2018-12-29T04:41:55.680Z,33.73
2018-12-29T04:44:24.520Z,31.87
2018-12-29T04:46:53.382Z,35.93
2018-12-29T04:49:22.216Z,34.67
2018-12-29T04:51:51.078Z,36.90
2018-12-29T04:54:19.854Z,33.63
2018-12-29T04:56:48.846Z,34.83
2018-12-29T04:59:17.721Z,35.47
2018-12-29T05:01:46.640Z,33.80
2018-12-29T05:04:15.502Z,33.93
2018-12-29T05:06:44.440Z,35.27
2018-12-29T05:09:13.297Z,34.07
2018-12-29T05:11:42.122Z,33.63
2018-12-29T05:14:11.065Z,33.37
2018-12-29T05:16:39.852Z,33.13
2018-12-29T05:19:08.710Z,33.70
2018-12-29T05:21:37.754Z,34.30
2018-12-29T05:24:06.574Z,35.27
2018-12-29T05:26:35.434Z,32.47
2018-12-29T05:29:04.255Z,31.83
2018-12-29T05:31:33.090Z,36.00
2018-12-29T05:34:01.968Z,32.70
2018-12-29T05:36:30.832Z,34.57
2018-12-29T05:38:59.694Z,33.33
2018-12-29T05:41:28.502Z,32.40
2018-12-29T05:43:57.334Z,33.60
2018-12-29T05:46:26.156Z,35.63
2018-12-29T05:48:55.058Z,36.40
2018-12-29T05:51:23.934Z,34.30
2018-12-29T05:53:53.499Z,33.90
2018-12-29T05:56:22.391Z,35.77
2018-12-29T05:58:51.307Z,34.13
2018-12-29T06:01:20.235Z,30.87
2018-12-29T06:03:49.151Z,33.40
2018-12-29T06:06:18.144Z,34.20
2018-12-29T06:08:46.989Z,33.37
2018-12-29T06:11:15.783Z,32.07
2018-12-29T06:13:44.639Z,34.00
2018-12-29T06:16:14.444Z,34.40
2018-12-29T06:18:43.280Z,32.50
2018-12-29T06:21:12.073Z,30.93
2018-12-29T06:23:40.918Z,32.17
2018-12-29T06:26:09.952Z,32.87
2018-12-29T06:28:38.826Z,32.40
2018-12-29T06:31:07.632Z,33.53
2018-12-29T06:33:36.465Z,33.50
2018-12-29T06:36:05.329Z,33.23
2018-12-29T06:38:34.153Z,35.50
2018-12-29T06:41:03.034Z,34.83
2018-12-29T06:43:31.883Z,37.07
2018-12-29T06:46:00.794Z,34.97
2018-12-29T06:48:29.626Z,35.20
2018-12-29T06:50:58.534Z,35.43
2018-12-29T06:53:27.365Z,37.10
2018-12-29T06:55:56.241Z,35.73
2018-12-29T06:58:25.165Z,36.30
2018-12-29T07:00:54.103Z,34.97
2018-12-29T07:03:22.990Z,36.63
2018-12-29T07:05:51.803Z,34.80
2018-12-29T07:08:20.715Z,35.40
2018-12-29T07:10:49.617Z,33.70
2018-12-29T07:13:18.461Z,34.90
2018-12-29T07:15:47.273Z,32.30
2018-12-29T07:18:16.132Z,34.80
2018-12-29T07:20:45.072Z,32.90
2018-12-29T07:23:13.915Z,33.60
2018-12-29T07:25:42.706Z,33.10
2018-12-29T07:28:11.526Z,34.97
2018-12-29T07:30:40.336Z,32.30
2018-12-29T07:33:09.178Z,33.30
2018-12-29T07:35:38.112Z,34.03
2018-12-29T07:38:06.938Z,34.10
2018-12-29T07:40:35.788Z,33.90
2018-12-29T07:43:04.711Z,33.83
2018-12-29T07:45:33.667Z,31.50
2018-12-29T07:48:02.517Z,32.77
2018-12-29T07:50:31.465Z,32.40
2018-12-29T07:53:00.377Z,32.90
2018-12-29T07:55:29.247Z,31.50
2018-12-29T07:57:58.110Z,31.97
2018-12-29T08:00:27.029Z,31.90
2018-12-29T08:02:55.891Z,30.03
2018-12-29T08:05:24.709Z,30.27
2018-12-29T08:07:53.844Z,30.80
2018-12-29T08:10:22.743Z,29.77
2018-12-29T08:12:51.574Z,30.30
2018-12-29T08:15:20.450Z,31.33
2018-12-29T08:17:49.237Z,30.73
2018-12-29T08:20:18.099Z,29.17
2018-12-29T08:22:46.929Z,30.83
2018-12-29T08:25:15.798Z,30.27
2018-12-29T08:27:44.619Z,28.87
2018-12-29T08:30:13.488Z,29.17
2018-12-29T08:32:42.286Z,27.60
2018-12-29T08:35:11.133Z,30.70
2018-12-29T08:37:39.967Z,29.20
2018-12-29T08:40:08.789Z,28.13
2018-12-29T08:42:37.678Z,27.00
2018-12-29T08:45:06.678Z,27.80
2018-12-29T08:47:35.565Z,27.93
2018-12-29T08:50:04.933Z,28.70
2018-12-29T08:52:33.911Z,29.83
2018-12-29T08:55:02.705Z,30.90
2018-12-29T08:57:31.543Z,29.70
2018-12-29T09:00:00.451Z,30.03
2018-12-29T09:02:29.326Z,29.57
2018-12-29T09:05:00.502Z,29.27
2018-12-29T09:07:29.334Z,31.30
2018-12-29T09:09:58.195Z,29.33
2018-12-29T09:12:27.012Z,28.70
2018-12-29T09:14:55.900Z,25.53
2018-12-29T09:17:24.834Z,29.27
2018-12-29T09:19:54.161Z,29.10
2018-12-29T09:22:23.933Z,29.93
2018-12-29T09:25:04.741Z,27.13
2018-12-29T09:28:02.870Z,26.53
2018-12-29T09:30:32.470Z,27.70
2018-12-29T09:33:08.798Z,25.37
2018-12-29T09:36:08.646Z,27.43
2018-12-29T09:38:38.273Z,27.60
2018-12-29T09:41:26.366Z,25.53
2018-12-29T09:43:58.370Z,26.20
2018-12-29T09:46:31.728Z,25.90
2018-12-29T09:49:10.514Z,26.70
2018-12-29T09:51:53.448Z,26.17
2018-12-29T09:54:23.257Z,27.70
2018-12-29T09:56:52.276Z,26.03
2018-12-29T09:59:24.520Z,26.00
2018-12-29T10:01:53.469Z,26.60
2018-12-29T10:04:27.041Z,27.07
2018-12-29T10:07:02.504Z,29.30
2018-12-29T10:09:32.295Z,29.43
2018-12-29T10:12:02.190Z,26.93
2018-12-29T10:14:34.200Z,27.47
2018-12-29T10:20:46.117Z,26.87
2018-12-29T10:26:37.532Z,29.13
2018-12-29T10:29:44.890Z,28.43
2018-12-29T10:33:05.732Z,26.77
2018-12-29T10:35:35.766Z,25.97
2018-12-29T10:38:09.073Z,26.13
2018-12-29T10:40:38.886Z,27.27
2018-12-29T10:43:08.384Z,26.47
2018-12-29T10:45:47.072Z,27.20
2018-12-29T10:48:24.298Z,25.77
2018-12-29T10:50:57.122Z,26.60
2018-12-29T10:53:53.190Z,27.57
2018-12-29T10:56:24.488Z,26.50
2018-12-29T10:58:54.550Z,25.17
2018-12-29T11:01:25.417Z,28.30
2018-12-29T11:03:55.396Z,27.13
2018-12-29T11:06:27.704Z,25.03
2018-12-29T11:09:08.474Z,25.73
2018-12-29T11:11:38.399Z,25.40
2018-12-29T11:14:12.281Z,25.90
2018-12-29T11:16:42.370Z,23.73
2018-12-29T11:19:42.576Z,25.03
2018-12-29T11:22:21.365Z,25.60
2018-12-29T11:25:03.018Z,26.80
2018-12-29T11:27:58.729Z,28.20
2018-12-29T11:30:53.260Z,27.47
2018-12-29T11:34:17.670Z,27.80
2018-12-29T11:36:59.096Z,28.60
2018-12-29T11:39:36.188Z,27.67
2018-12-29T11:42:08.037Z,28.80
2018-12-29T11:44:47.087Z,27.80
2018-12-29T11:48:04.249Z,27.03
2018-12-29T11:50:36.253Z,28.10
2018-12-29T11:53:33.647Z,27.00
2018-12-29T11:56:09.611Z,27.87
2018-12-29T11:58:42.372Z,30.70
2018-12-29T12:01:11.385Z,28.87
2018-12-29T12:03:41.452Z,28.27
2018-12-29T12:06:10.974Z,27.10
2018-12-29T12:08:48.871Z,26.93
2018-12-29T12:11:18.771Z,28.47
2018-12-29T12:13:54.396Z,29.73
2018-12-29T12:16:38.343Z,27.63
2018-12-29T12:19:07.381Z,27.70
2018-12-29T12:21:41.771Z,26.87
2018-12-29T12:24:11.489Z,25.30
2018-12-29T12:26:41.468Z,27.40
2018-12-29T12:29:10.990Z,25.67
2018-12-29T12:31:44.182Z,26.20
2018-12-29T12:34:20.121Z,27.90
2018-12-29T12:37:03.168Z,25.37
2018-12-29T12:40:08.596Z,25.03
2018-12-29T12:42:38.717Z,26.13
2018-12-29T12:45:15.177Z,26.43
2018-12-29T12:47:44.856Z,26.20
2018-12-29T12:50:14.148Z,26.27
2018-12-29T12:52:50.061Z,24.00
2018-12-29T12:55:27.047Z,22.53
2018-12-29T12:58:03.703Z,22.30
2018-12-29T13:00:33.792Z,22.17
2018-12-29T13:03:03.951Z,21.43
2018-12-29T13:05:33.603Z,22.27
2018-12-29T13:08:33.529Z,22.47
2018-12-29T13:11:10.269Z,20.83
2018-12-29T13:13:42.925Z,22.17
2018-12-29T13:16:12.727Z,22.17
2018-12-29T13:18:46.735Z,20.67
2018-12-29T13:21:16.289Z,20.53
2018-12-29T13:23:51.375Z,22.33
2018-12-29T13:26:21.535Z,21.10
2018-12-29T13:31:22.867Z,20.77
2018-12-29T13:33:58.452Z,21.90
2018-12-29T13:36:28.415Z,19.73
2018-12-29T13:39:32.442Z,19.13
2018-12-29T13:42:01.924Z,19.23
2018-12-29T13:44:31.655Z,19.27
2018-12-29T13:47:01.124Z,19.87
2018-12-29T13:49:36.193Z,19.27
2018-12-29T13:52:05.652Z,19.27
2018-12-29T13:55:15.463Z,20.30
2018-12-29T13:58:25.175Z,18.73
2018-12-29T14:00:54.775Z,19.50
2018-12-29T14:03:26.287Z,19.47
2018-12-29T14:06:08.422Z,19.10
2018-12-29T14:08:59.120Z,18.97
2018-12-29T14:11:28.796Z,17.50
2018-12-29T14:14:02.813Z,20.10
2018-12-29T14:16:38.209Z,19.93
2018-12-29T14:19:17.848Z,18.27
2018-12-29T14:21:54.552Z,20.20
2018-12-29T14:24:24.246Z,19.20
2018-12-29T14:26:53.339Z,21.23
2018-12-29T14:29:24.097Z,21.17
2018-12-29T14:31:55.184Z,18.70
2018-12-29T14:34:24.843Z,21.53
2018-12-29T14:36:59.097Z,21.03
2018-12-29T14:39:50.993Z,20.20
2018-12-29T14:42:20.659Z,22.10
2018-12-29T14:45:05.829Z,21.53
2018-12-29T14:47:52.203Z,21.33
2018-12-29T14:51:12.121Z,20.30
2018-12-29T14:53:46.166Z,20.23
2018-12-29T14:59:51.733Z,21.30
2018-12-29T15:02:30.108Z,21.27
2018-12-29T15:05:03.167Z,22.00
2018-12-29T15:07:50.252Z,21.40
2018-12-29T15:13:10.110Z,22.27
2018-12-29T15:15:39.974Z,21.40
2018-12-29T15:18:11.970Z,23.20
2018-12-29T15:20:48.084Z,22.27
2018-12-29T15:23:20.144Z,21.33
2018-12-29T15:25:49.650Z,21.20
2018-12-29T15:28:21.580Z,22.60
2018-12-29T15:31:01.894Z,21.40
2018-12-29T15:33:41.975Z,23.17
2018-12-29T15:36:16.002Z,22.10
2018-12-29T15:38:45.647Z,21.73
2018-12-29T15:41:20.940Z,22.97
2018-12-29T15:43:51.078Z,21.47
2018-12-29T15:46:20.560Z,21.30
2018-12-29T15:48:51.111Z,21.03
2018-12-29T15:51:20.946Z,21.27
2018-12-29T15:53:50.414Z,21.40
2018-12-29T15:56:20.450Z,20.00
2018-12-29T15:59:09.416Z,20.90
2018-12-29T16:01:45.578Z,21.47
2018-12-29T16:04:43.601Z,21.23
2018-12-29T16:07:28.311Z,19.60
2018-12-29T16:10:26.881Z,19.87
2018-12-29T16:12:47.782Z,19.10
2018-12-29T16:15:20.065Z,19.40
2018-12-29T16:17:53.176Z,20.20
2018-12-29T16:20:32.106Z,20.60
2018-12-29T16:23:02.302Z,21.37
2018-12-29T16:25:31.904Z,21.40
2018-12-29T16:28:08.751Z,21.00
2018-12-29T16:30:46.472Z,21.20
2018-12-29T16:33:29.266Z,20.47
2018-12-29T16:36:00.252Z,20.33
2018-12-29T16:38:29.548Z,20.67
2018-12-29T16:41:00.598Z,19.50
2018-12-29T16:43:30.105Z,18.17
2018-12-29T16:45:59.513Z,17.23
2018-12-29T16:48:31.114Z,15.53
2018-12-29T16:51:00.642Z,15.27
2018-12-29T16:53:30.362Z,16.50
2018-12-29T16:56:19.797Z,14.67
2018-12-29T16:58:49.007Z,15.00
2018-12-29T17:01:25.704Z,13.07
2018-12-29T17:03:59.866Z,13.60
2018-12-29T17:06:38.123Z,12.30
2018-12-29T17:09:10.868Z,12.43
2018-12-29T17:11:40.061Z,11.87
2018-12-29T17:14:17.235Z,11.90
2018-12-29T17:17:11.787Z,10.80
2018-12-29T17:19:44.677Z,11.00
2018-12-29T17:22:54.135Z,10.10
2018-12-29T17:25:35.915Z,10.43
2018-12-29T17:28:05.279Z,11.20
2018-12-29T17:30:34.191Z,9.97
2018-12-29T17:33:03.099Z,10.10
2018-12-29T17:35:36.211Z,9.87
2018-12-29T17:38:05.545Z,10.90
2018-12-29T17:40:41.115Z,9.70
2018-12-29T17:43:10.294Z,9.47
2018-12-29T17:45:42.673Z,9.90
2018-12-29T17:48:12.110Z,8.97
2018-12-29T17:50:41.445Z,8.30
2018-12-29T17:53:48.422Z,8.67
2018-12-29T17:56:24.313Z,9.37
2018-12-29T17:58:57.003Z,9.33
2018-12-29T18:01:26.599Z,9.03
2018-12-29T18:03:55.816Z,8.40
2018-12-29T18:06:26.991Z,8.23
2018-12-29T18:09:04.338Z,8.53
2018-12-29T18:11:33.543Z,8.57
2018-12-29T18:14:03.272Z,8.67
2018-12-29T18:16:32.486Z,8.50
2018-12-29T18:19:02.304Z,8.40
2018-12-29T18:21:32.052Z,8.60
2018-12-29T18:24:01.388Z,9.00
2018-12-29T18:26:30.716Z,8.73
2018-12-29T18:29:11.080Z,10.13
2018-12-29T18:31:49.298Z,8.73
2018-12-29T18:34:18.913Z,8.87
2018-12-29T18:36:48.404Z,10.40
2018-12-29T18:39:36.608Z,8.83
2018-12-29T18:42:08.943Z,8.90
2018-12-29T18:44:38.645Z,9.40
2018-12-29T18:47:08.452Z,9.50
2018-12-29T18:49:38.552Z,8.47
2018-12-29T18:52:08.398Z,10.10
2018-12-29T18:54:37.741Z,9.40
2018-12-29T18:57:06.759Z,10.40
2018-12-29T18:59:35.929Z,10.77
2018-12-29T19:02:05.536Z,9.90
2018-12-29T19:04:44.975Z,11.13
2018-12-29T19:10:06.338Z,10.17
2018-12-29T19:12:35.570Z,11.87
2018-12-29T19:15:05.763Z,11.27
2018-12-29T19:17:36.643Z,11.70
2018-12-29T19:20:07.125Z,11.50
2018-12-29T19:22:36.321Z,14.37
2018-12-29T19:25:05.866Z,14.37
2018-12-29T19:27:35.144Z,15.30
2018-12-29T19:30:05.391Z,16.13
2018-12-29T19:32:35.156Z,17.03
2018-12-29T19:35:04.733Z,16.50
2018-12-29T19:37:34.191Z,18.87
2018-12-29T19:40:03.385Z,19.07
2018-12-29T19:42:33.249Z,18.40
2018-12-29T19:45:02.595Z,19.47
2018-12-29T19:47:32.711Z,18.73
2018-12-29T19:50:02.007Z,17.23
2018-12-29T19:52:31.453Z,19.80
2018-12-29T19:55:00.693Z,20.03
2018-12-29T19:57:30.508Z,20.33
2018-12-29T19:59:59.743Z,20.87
2018-12-29T20:02:29.243Z,20.87
2018-12-29T20:04:59.021Z,21.33
2018-12-29T20:07:31.773Z,22.10
2018-12-29T20:10:08.821Z,21.47
2018-12-29T20:12:50.507Z,23.03
2018-12-29T20:15:31.685Z,21.70
2018-12-29T20:18:03.531Z,23.77
2018-12-29T20:20:38.803Z,23.53
2018-12-29T20:23:08.251Z,24.33
2018-12-29T20:25:37.218Z,23.20
2018-12-29T20:28:09.924Z,22.23
2018-12-29T20:30:39.497Z,23.67
2018-12-29T20:33:08.639Z,21.80
2018-12-29T20:36:05.566Z,21.73
2018-12-29T20:38:34.848Z,23.00
2018-12-29T20:41:09.756Z,20.97
2018-12-29T20:43:42.434Z,23.13
2018-12-29T20:46:17.981Z,21.83
2018-12-29T20:48:42.947Z,22.07
2018-12-29T20:51:14.665Z,22.47
2018-12-29T20:53:45.764Z,21.93
2018-12-29T20:56:17.872Z,23.03
2018-12-29T20:58:54.428Z,21.97
2018-12-29T21:01:24.051Z,21.77
2018-12-29T21:03:54.266Z,21.00
2018-12-29T21:06:24.925Z,20.50
2018-12-29T21:12:35.654Z,19.53
2018-12-29T21:15:06.513Z,21.03
2018-12-29T21:21:13.147Z,19.40
2018-12-29T21:30:15.339Z,15.70
2018-12-29T21:32:46.410Z,16.43
2018-12-29T21:35:21.116Z,17.27
2018-12-29T21:37:50.687Z,16.63
2018-12-29T21:40:22.901Z,15.60
2018-12-29T21:43:35.650Z,17.90
2018-12-29T21:47:07.012Z,16.90
2018-12-29T21:49:37.921Z,14.70
2018-12-29T21:52:07.470Z,14.57
2018-12-29T21:54:37.028Z,16.33
2018-12-29T21:57:07.784Z,14.93
2018-12-29T21:59:36.952Z,14.70
2018-12-29T22:02:19.911Z,15.90
2018-12-29T22:04:55.229Z,15.83
2018-12-29T22:07:31.055Z,15.87
2018-12-29T22:10:05.886Z,14.17
2018-12-29T22:12:39.255Z,14.83
2018-12-29T22:15:15.798Z,15.40
2018-12-29T22:17:45.058Z,14.93
2018-12-29T22:20:14.661Z,14.37
2018-12-29T22:22:44.359Z,15.03
2018-12-29T22:25:13.802Z,15.27
2018-12-29T22:27:43.481Z,13.33
2018-12-29T22:30:12.767Z,14.20
2018-12-29T22:32:51.263Z,14.50
2018-12-29T22:35:20.419Z,13.67
2018-12-29T22:37:52.427Z,13.20
2018-12-29T22:40:26.845Z,12.07
2018-12-29T22:42:56.491Z,13.07
2018-12-29T22:45:29.693Z,14.20
2018-12-29T22:48:06.435Z,13.17
2018-12-29T22:50:40.952Z,14.60
2018-12-29T22:53:07.427Z,13.00
2018-12-29T22:55:53.139Z,12.83
2018-12-29T23:00:29.129Z,13.40
2018-12-29T23:01:15.257Z,14.53
2018-12-29T23:03:45.617Z,14.07
2018-12-29T23:06:21.898Z,13.33
2018-12-29T23:09:12.809Z,12.83
2018-12-29T23:11:43.776Z,12.90
2018-12-29T23:14:30.093Z,14.17
2018-12-29T23:17:02.956Z,13.20
2018-12-29T23:19:32.965Z,12.23
2018-12-29T23:22:02.579Z,13.50
2018-12-29T23:24:41.554Z,13.53
2018-12-29T23:27:11.179Z,12.90
2018-12-29T23:29:46.139Z,12.80
2018-12-29T23:32:23.091Z,13.20
2018-12-29T23:35:04.396Z,13.27
2018-12-29T23:37:48.162Z,12.47
2018-12-29T23:40:19.033Z,12.77
2018-12-29T23:45:48.005Z,13.00
2018-12-29T23:48:20.882Z,13.23
2018-12-29T23:51:05.243Z,12.60
2018-12-29T23:53:47.331Z,12.70
2018-12-29T23:56:25.720Z,12.67
2018-12-29T23:58:56.216Z,12.43
